Flight Track Log - Related Links

Times and Time Zones

All times are in EST time to prevent confusion due to time zone crossing. See the LJY630 flight status page for this flight to view local times or setup timezone preferences in your user account.

Time Position Orientation Groundspeed Altitude Reporting Facility
EST Latitude Longitude Course Direction KTS MPH feet Rate Location/Type
Thu 10:11:09 AM 39.7911 -79.8247 35° Northeast 272 313 5,000  Level Cleveland Center
Thu 10:11:19 AM 39.8072 -79.8117 32° Northeast 288 331 4,900 98 Descending Cleveland Center
Thu 10:12:10 AM 39.8569 -79.7675 34° Northeast 281 323 5,100 98 Climbing Cleveland Center
Thu 10:12:20 AM 39.8708 -79.7558 33° Northeast 276 318 5,000  Descending Cleveland Center
Thu 10:13:12 AM 39.9194 -79.7139 33° Northeast 275 316 5,100 -100 Climbing Cleveland Center
Thu 10:13:20 AM 39.9322 -79.7025 34° Northeast 270 311 4,900  Descending Cleveland Center
Thu 10:14:14 AM 39.9831 -79.6589 33° Northeast 276 318 5,100 109 Climbing Cleveland Center
Thu 10:14:15 AM 39.9914 -79.6511 36° Northeast 278 320 5,000  Descending Cleveland Center
Thu 10:15:00 AM 40.0272 -79.6084 21° North  Level Estimated
Thu 10:15:15 AM 40.0469 -79.6019 34° Northeast 279 321 5,100  Level Cleveland Center
Thu 10:15:16 AM 40.0547 -79.5978 22° Northeast 280 322 5,000 -98 Descending Cleveland Center
Thu 10:16:00 AM 40.0910 -79.5565 21° North  Level Estimated
Thu 10:16:16 AM 40.1128 -79.5353 39° Northeast 278 320 5,000  Level Cleveland Center
Thu 10:16:17 AM 40.1094 -79.5458 248° West 277 319 4,900  Descending Cleveland Center
Thu 10:17:17 AM 40.1622 -79.4469 55° Northeast 282 325 5,000  Climbing Cleveland Center
Thu 10:17:19 AM 40.1622 -79.4453 90° East 281 323 4,900  Descending Cleveland Center
Thu 10:18:18 AM 40.2147 -79.3753 46° Northeast 278 320 5,000 98 Climbing Cleveland Center
Thu 10:18:20 AM 40.2161 -79.3725 57° Northeast 280 322 5,000 -50 Level Cleveland Center
Thu 10:20:19 AM 40.3250 -79.2350 44° Northeast 274 315 4,900 -48 Descending Cleveland Center
Thu 10:20:24 AM 40.3283 -79.2294 52° Northeast 274 315 4,900 -716 Level Cleveland Center
Thu 10:21:26 AM 40.3842 -79.1728 38° Northeast 268 308 4,100 -362 Descending Cleveland Center
Thu 10:22:20 AM 40.3978 -79.2181 292° West 153 176 4,200 98 Climbing Cleveland Center
Thu 10:22:27 AM 40.3986 -79.2197 303° West 188 216 4,200 -87 Level Cleveland Center
Thu 10:23:29 AM 40.3772 -79.2722 242° Southwest 167 192 4,100 -581 Descending Cleveland Center
Thu 10:24:31 AM 40.3447 -79.3136 224° Southwest 148 170 3,000 -774 Descending Cleveland Center
Thu 10:25:33 AM 40.3256 -79.3400 226° Southwest 113 130 2,500 -541 Descending Cleveland Center
Thu 10:26:22 AM 40.3078 -79.3642 226° Southwest 92 106 2,000 -590 Descending Cleveland Center
Thu 10:26:34 AM 40.3067 -79.3672 245° Southwest 102 117 1,900 -324 Descending Cleveland Center
Thu 10:27:36 AM 40.2869 -79.3931 225° Southwest 103 119 1,600 -290 Descending Cleveland Center
Thu 10:29:00 AM 40.2667 -79.4000 249° West  Level FlightAware Approximate
Thu 10:36:00 AM 40.2746 -79.4068 249° West  Level Estimated
Thu 10:37:00 AM 40.2746 -79.4068 249° West  Level Estimated

Login

Don't have an account? Register now (free) for customized features, flight alerts, and more!